sensor_id;sensor_type;location;lat;lon;timestamp;P1;durP1;ratioP1;P2;durP2;ratioP2
3083;SDS011;1552;51.952;7.618;2023-03-21T00:00:14;21.10;;;9.43;;
3083;SDS011;1552;51.952;7.618;2023-03-21T00:02:40;23.17;;;11.60;;
3083;SDS011;1552;51.952;7.618;2023-03-21T00:05:07;24.13;;;10.03;;
3083;SDS011;1552;51.952;7.618;2023-03-21T00:07:33;21.43;;;10.43;;
3083;SDS011;1552;51.952;7.618;2023-03-21T00:09:59;25.37;;;10.73;;
3083;SDS011;1552;51.952;7.618;2023-03-21T00:12:26;18.57;;;10.10;;
3083;SDS011;1552;51.952;7.618;2023-03-21T00:14:56;22.97;;;11.60;;
3083;SDS011;1552;51.952;7.618;2023-03-21T00:17:30;19.77;;;9.90;;
3083;SDS011;1552;51.952;7.618;2023-03-21T00:19:56;20.90;;;9.90;;
3083;SDS011;1552;51.952;7.618;2023-03-21T00:22:23;22.83;;;11.23;;
3083;SDS011;1552;51.952;7.618;2023-03-21T00:24:49;23.17;;;10.77;;
3083;SDS011;1552;51.952;7.618;2023-03-21T00:27:16;21.13;;;11.20;;
3083;SDS011;1552;51.952;7.618;2023-03-21T00:29:43;23.10;;;12.43;;
3083;SDS011;1552;51.952;7.618;2023-03-21T00:32:10;24.20;;;12.47;;
3083;SDS011;1552;51.952;7.618;2023-03-21T00:34:37;21.57;;;12.33;;
3083;SDS011;1552;51.952;7.618;2023-03-21T00:37:04;33.10;;;13.73;;
3083;SDS011;1552;51.952;7.618;2023-03-21T00:39:31;24.20;;;11.80;;
3083;SDS011;1552;51.952;7.618;2023-03-21T00:41:57;25.70;;;13.23;;
3083;SDS011;1552;51.952;7.618;2023-03-21T00:44:23;25.93;;;13.47;;
3083;SDS011;1552;51.952;7.618;2023-03-21T00:46:50;27.63;;;13.07;;
3083;SDS011;1552;51.952;7.618;2023-03-21T00:49:16;22.90;;;12.07;;
3083;SDS011;1552;51.952;7.618;2023-03-21T00:51:46;30.30;;;12.97;;
3083;SDS011;1552;51.952;7.618;2023-03-21T00:54:15;26.20;;;13.77;;
3083;SDS011;1552;51.952;7.618;2023-03-21T00:56:41;26.53;;;12.87;;
3083;SDS011;1552;51.952;7.618;2023-03-21T00:59:08;31.17;;;15.13;;
3083;SDS011;1552;51.952;7.618;2023-03-21T01:01:34;25.23;;;12.73;;
3083;SDS011;1552;51.952;7.618;2023-03-21T01:04:00;24.77;;;13.77;;
3083;SDS011;1552;51.952;7.618;2023-03-21T01:06:30;29.13;;;13.53;;
3083;SDS011;1552;51.952;7.618;2023-03-21T01:08:57;30.17;;;14.53;;
3083;SDS011;1552;51.952;7.618;2023-03-21T01:11:25;26.17;;;14.30;;
3083;SDS011;1552;51.952;7.618;2023-03-21T01:13:52;24.40;;;13.27;;
3083;SDS011;1552;51.952;7.618;2023-03-21T01:16:20;28.80;;;15.60;;
3083;SDS011;1552;51.952;7.618;2023-03-21T01:18:46;28.30;;;14.37;;
3083;SDS011;1552;51.952;7.618;2023-03-21T01:21:13;33.03;;;14.80;;
3083;SDS011;1552;51.952;7.618;2023-03-21T01:23:39;29.30;;;14.70;;
3083;SDS011;1552;51.952;7.618;2023-03-21T01:26:08;28.80;;;14.10;;
3083;SDS011;1552;51.952;7.618;2023-03-21T01:28:35;25.97;;;13.77;;
3083;SDS011;1552;51.952;7.618;2023-03-21T01:31:01;28.50;;;15.00;;
3083;SDS011;1552;51.952;7.618;2023-03-21T01:33:28;34.43;;;14.10;;
3083;SDS011;1552;51.952;7.618;2023-03-21T01:35:55;22.13;;;13.73;;
3083;SDS011;1552;51.952;7.618;2023-03-21T01:38:22;32.53;;;15.47;;
3083;SDS011;1552;51.952;7.618;2023-03-21T01:40:49;25.33;;;15.43;;
3083;SDS011;1552;51.952;7.618;2023-03-21T01:43:25;33.57;;;16.23;;
3083;SDS011;1552;51.952;7.618;2023-03-21T01:46:11;28.83;;;16.20;;
3083;SDS011;1552;51.952;7.618;2023-03-21T01:48:45;31.00;;;16.73;;
3083;SDS011;1552;51.952;7.618;2023-03-21T01:51:12;33.23;;;16.67;;
3083;SDS011;1552;51.952;7.618;2023-03-21T01:53:38;39.90;;;17.10;;
3083;SDS011;1552;51.952;7.618;2023-03-21T01:56:07;39.53;;;19.03;;
3083;SDS011;1552;51.952;7.618;2023-03-21T01:58:37;31.60;;;17.97;;
3083;SDS011;1552;51.952;7.618;2023-03-21T02:01:05;37.90;;;19.40;;
3083;SDS011;1552;51.952;7.618;2023-03-21T02:03:31;35.47;;;18.57;;
3083;SDS011;1552;51.952;7.618;2023-03-21T02:06:03;35.13;;;19.83;;
3083;SDS011;1552;51.952;7.618;2023-03-21T02:08:31;33.87;;;18.83;;
3083;SDS011;1552;51.952;7.618;2023-03-21T02:10:58;38.77;;;19.17;;
3083;SDS011;1552;51.952;7.618;2023-03-21T02:13:25;38.27;;;19.20;;
3083;SDS011;1552;51.952;7.618;2023-03-21T02:15:54;34.80;;;18.10;;
3083;SDS011;1552;51.952;7.618;2023-03-21T02:18:23;33.50;;;18.30;;
3083;SDS011;1552;51.952;7.618;2023-03-21T02:20:55;34.50;;;19.77;;
3083;SDS011;1552;51.952;7.618;2023-03-21T02:23:48;34.63;;;19.40;;
3083;SDS011;1552;51.952;7.618;2023-03-21T02:26:21;36.50;;;17.10;;
3083;SDS011;1552;51.952;7.618;2023-03-21T02:28:52;35.53;;;17.13;;
3083;SDS011;1552;51.952;7.618;2023-03-21T02:31:31;33.20;;;17.47;;
3083;SDS011;1552;51.952;7.618;2023-03-21T02:34:04;30.77;;;17.10;;
3083;SDS011;1552;51.952;7.618;2023-03-21T02:36:47;38.20;;;17.77;;
3083;SDS011;1552;51.952;7.618;2023-03-21T02:39:13;37.60;;;17.80;;
3083;SDS011;1552;51.952;7.618;2023-03-21T02:41:47;32.00;;;17.33;;
3083;SDS011;1552;51.952;7.618;2023-03-21T02:44:17;33.53;;;18.50;;
3083;SDS011;1552;51.952;7.618;2023-03-21T02:46:45;33.73;;;16.60;;
3083;SDS011;1552;51.952;7.618;2023-03-21T02:49:15;34.93;;;18.07;;
3083;SDS011;1552;51.952;7.618;2023-03-21T02:51:43;32.87;;;17.23;;
3083;SDS011;1552;51.952;7.618;2023-03-21T02:54:13;32.57;;;16.93;;
3083;SDS011;1552;51.952;7.618;2023-03-21T02:56:40;30.73;;;16.37;;
3083;SDS011;1552;51.952;7.618;2023-03-21T02:59:07;31.50;;;17.03;;
3083;SDS011;1552;51.952;7.618;2023-03-21T03:01:33;32.33;;;16.90;;
3083;SDS011;1552;51.952;7.618;2023-03-21T03:04:00;29.53;;;15.00;;
3083;SDS011;1552;51.952;7.618;2023-03-21T03:06:28;32.83;;;16.47;;
3083;SDS011;1552;51.952;7.618;2023-03-21T03:09:05;39.27;;;18.27;;
3083;SDS011;1552;51.952;7.618;2023-03-21T03:11:34;39.40;;;19.20;;
3083;SDS011;1552;51.952;7.618;2023-03-21T03:14:15;35.80;;;19.23;;
3083;SDS011;1552;51.952;7.618;2023-03-21T03:16:47;31.67;;;19.37;;
3083;SDS011;1552;51.952;7.618;2023-03-21T03:19:17;36.43;;;18.90;;
3083;SDS011;1552;51.952;7.618;2023-03-21T03:21:48;40.83;;;19.70;;
3083;SDS011;1552;51.952;7.618;2023-03-21T03:24:18;43.23;;;22.10;;
3083;SDS011;1552;51.952;7.618;2023-03-21T03:26:47;39.30;;;20.50;;
3083;SDS011;1552;51.952;7.618;2023-03-21T03:29:16;32.97;;;18.17;;
3083;SDS011;1552;51.952;7.618;2023-03-21T03:31:45;30.73;;;18.30;;
3083;SDS011;1552;51.952;7.618;2023-03-21T03:34:13;32.30;;;18.00;;
3083;SDS011;1552;51.952;7.618;2023-03-21T03:36:40;32.83;;;16.80;;
3083;SDS011;1552;51.952;7.618;2023-03-21T03:39:09;31.87;;;17.60;;
3083;SDS011;1552;51.952;7.618;2023-03-21T03:41:37;32.43;;;18.60;;
3083;SDS011;1552;51.952;7.618;2023-03-21T03:44:07;38.23;;;18.03;;
3083;SDS011;1552;51.952;7.618;2023-03-21T03:46:35;36.37;;;17.57;;
3083;SDS011;1552;51.952;7.618;2023-03-21T03:49:05;36.23;;;18.23;;
3083;SDS011;1552;51.952;7.618;2023-03-21T03:51:34;34.57;;;18.67;;
3083;SDS011;1552;51.952;7.618;2023-03-21T03:54:02;34.10;;;17.27;;
3083;SDS011;1552;51.952;7.618;2023-03-21T03:56:30;29.73;;;15.93;;
3083;SDS011;1552;51.952;7.618;2023-03-21T03:58:56;31.40;;;17.87;;
3083;SDS011;1552;51.952;7.618;2023-03-21T04:01:24;44.70;;;18.60;;
3083;SDS011;1552;51.952;7.618;2023-03-21T04:03:50;35.07;;;17.63;;
3083;SDS011;1552;51.952;7.618;2023-03-21T04:06:17;30.10;;;17.27;;
3083;SDS011;1552;51.952;7.618;2023-03-21T04:08:44;36.53;;;17.53;;
3083;SDS011;1552;51.952;7.618;2023-03-21T04:11:11;34.37;;;17.43;;
3083;SDS011;1552;51.952;7.618;2023-03-21T04:13:38;31.00;;;17.53;;
3083;SDS011;1552;51.952;7.618;2023-03-21T04:16:04;36.53;;;16.00;;
3083;SDS011;1552;51.952;7.618;2023-03-21T04:18:32;30.20;;;17.63;;
3083;SDS011;1552;51.952;7.618;2023-03-21T04:20:59;32.00;;;16.40;;
3083;SDS011;1552;51.952;7.618;2023-03-21T04:23:26;35.90;;;17.27;;
3083;SDS011;1552;51.952;7.618;2023-03-21T04:25:53;31.30;;;16.27;;
3083;SDS011;1552;51.952;7.618;2023-03-21T04:28:19;31.53;;;16.10;;
3083;SDS011;1552;51.952;7.618;2023-03-21T04:30:47;30.47;;;15.50;;
3083;SDS011;1552;51.952;7.618;2023-03-21T04:33:13;32.80;;;15.47;;
3083;SDS011;1552;51.952;7.618;2023-03-21T04:35:41;29.33;;;16.47;;
3083;SDS011;1552;51.952;7.618;2023-03-21T04:38:09;28.90;;;14.97;;
3083;SDS011;1552;51.952;7.618;2023-03-21T04:40:35;29.40;;;15.50;;
3083;SDS011;1552;51.952;7.618;2023-03-21T04:43:02;33.83;;;15.13;;
3083;SDS011;1552;51.952;7.618;2023-03-21T04:45:28;31.97;;;16.20;;
3083;SDS011;1552;51.952;7.618;2023-03-21T04:47:54;29.93;;;14.70;;
3083;SDS011;1552;51.952;7.618;2023-03-21T04:50:21;28.63;;;14.77;;
3083;SDS011;1552;51.952;7.618;2023-03-21T04:52:49;32.00;;;14.53;;
3083;SDS011;1552;51.952;7.618;2023-03-21T04:55:15;32.23;;;15.50;;
3083;SDS011;1552;51.952;7.618;2023-03-21T04:57:45;26.47;;;13.97;;
3083;SDS011;1552;51.952;7.618;2023-03-21T05:00:12;32.70;;;15.60;;
3083;SDS011;1552;51.952;7.618;2023-03-21T05:02:39;28.77;;;15.47;;
3083;SDS011;1552;51.952;7.618;2023-03-21T05:05:05;27.93;;;13.83;;
3083;SDS011;1552;51.952;7.618;2023-03-21T05:07:35;27.77;;;13.63;;
3083;SDS011;1552;51.952;7.618;2023-03-21T05:10:03;30.20;;;14.20;;
3083;SDS011;1552;51.952;7.618;2023-03-21T05:12:29;32.83;;;15.13;;
3083;SDS011;1552;51.952;7.618;2023-03-21T05:14:55;29.23;;;15.17;;
3083;SDS011;1552;51.952;7.618;2023-03-21T05:17:22;31.70;;;15.30;;
3083;SDS011;1552;51.952;7.618;2023-03-21T05:19:49;30.40;;;14.63;;
3083;SDS011;1552;51.952;7.618;2023-03-21T05:22:16;32.83;;;14.40;;
3083;SDS011;1552;51.952;7.618;2023-03-21T05:24:43;29.47;;;15.13;;
3083;SDS011;1552;51.952;7.618;2023-03-21T05:27:15;27.70;;;14.50;;
3083;SDS011;1552;51.952;7.618;2023-03-21T05:30:01;30.53;;;14.63;;
3083;SDS011;1552;51.952;7.618;2023-03-21T05:32:27;30.67;;;15.40;;
3083;SDS011;1552;51.952;7.618;2023-03-21T05:34:54;30.83;;;14.57;;
3083;SDS011;1552;51.952;7.618;2023-03-21T05:37:20;25.90;;;14.60;;
3083;SDS011;1552;51.952;7.618;2023-03-21T05:39:47;33.90;;;14.67;;
3083;SDS011;1552;51.952;7.618;2023-03-21T05:42:14;34.03;;;14.50;;
3083;SDS011;1552;51.952;7.618;2023-03-21T05:44:42;30.93;;;14.17;;
3083;SDS011;1552;51.952;7.618;2023-03-21T05:47:08;26.97;;;15.20;;
3083;SDS011;1552;51.952;7.618;2023-03-21T05:49:35;27.30;;;14.27;;
3083;SDS011;1552;51.952;7.618;2023-03-21T05:52:01;28.67;;;14.37;;
3083;SDS011;1552;51.952;7.618;2023-03-21T05:54:27;29.30;;;14.43;;
3083;SDS011;1552;51.952;7.618;2023-03-21T05:56:54;26.80;;;14.43;;
3083;SDS011;1552;51.952;7.618;2023-03-21T05:59:21;24.67;;;13.93;;
3083;SDS011;1552;51.952;7.618;2023-03-21T06:01:48;29.77;;;14.17;;
3083;SDS011;1552;51.952;7.618;2023-03-21T06:04:14;28.23;;;14.43;;
3083;SDS011;1552;51.952;7.618;2023-03-21T06:06:40;28.73;;;13.77;;
3083;SDS011;1552;51.952;7.618;2023-03-21T06:09:07;32.30;;;14.97;;
3083;SDS011;1552;51.952;7.618;2023-03-21T06:11:34;31.20;;;14.17;;
3083;SDS011;1552;51.952;7.618;2023-03-21T06:14:01;26.80;;;14.13;;
3083;SDS011;1552;51.952;7.618;2023-03-21T06:16:28;32.67;;;14.63;;
3083;SDS011;1552;51.952;7.618;2023-03-21T06:18:55;33.57;;;14.10;;
3083;SDS011;1552;51.952;7.618;2023-03-21T06:21:21;28.73;;;13.67;;
3083;SDS011;1552;51.952;7.618;2023-03-21T06:23:47;27.93;;;13.43;;
3083;SDS011;1552;51.952;7.618;2023-03-21T06:26:15;25.37;;;13.43;;
3083;SDS011;1552;51.952;7.618;2023-03-21T06:28:43;31.67;;;13.90;;
3083;SDS011;1552;51.952;7.618;2023-03-21T06:31:10;24.17;;;13.50;;
3083;SDS011;1552;51.952;7.618;2023-03-21T06:33:37;25.23;;;13.30;;
3083;SDS011;1552;51.952;7.618;2023-03-21T06:36:04;26.83;;;13.47;;
3083;SDS011;1552;51.952;7.618;2023-03-21T06:38:30;27.90;;;13.73;;
3083;SDS011;1552;51.952;7.618;2023-03-21T06:40:56;26.67;;;14.40;;
3083;SDS011;1552;51.952;7.618;2023-03-21T06:43:23;25.93;;;12.90;;
3083;SDS011;1552;51.952;7.618;2023-03-21T06:45:49;28.20;;;13.63;;
3083;SDS011;1552;51.952;7.618;2023-03-21T06:48:16;24.57;;;13.33;;
3083;SDS011;1552;51.952;7.618;2023-03-21T06:50:43;26.77;;;14.03;;
3083;SDS011;1552;51.952;7.618;2023-03-21T06:53:09;26.00;;;12.80;;
3083;SDS011;1552;51.952;7.618;2023-03-21T06:55:36;32.03;;;14.87;;
3083;SDS011;1552;51.952;7.618;2023-03-21T06:58:02;30.63;;;15.27;;
3083;SDS011;1552;51.952;7.618;2023-03-21T07:00:28;30.80;;;15.83;;
3083;SDS011;1552;51.952;7.618;2023-03-21T07:02:55;25.70;;;14.07;;
3083;SDS011;1552;51.952;7.618;2023-03-21T07:05:21;29.40;;;14.50;;
3083;SDS011;1552;51.952;7.618;2023-03-21T07:07:49;27.10;;;14.03;;
3083;SDS011;1552;51.952;7.618;2023-03-21T07:10:15;32.80;;;14.50;;
3083;SDS011;1552;51.952;7.618;2023-03-21T07:12:42;30.90;;;14.67;;
3083;SDS011;1552;51.952;7.618;2023-03-21T07:15:08;32.53;;;15.07;;
3083;SDS011;1552;51.952;7.618;2023-03-21T07:17:35;28.17;;;14.40;;
3083;SDS011;1552;51.952;7.618;2023-03-21T07:20:01;25.57;;;13.13;;
3083;SDS011;1552;51.952;7.618;2023-03-21T07:22:30;23.33;;;13.30;;
3083;SDS011;1552;51.952;7.618;2023-03-21T07:24:58;28.77;;;13.97;;
3083;SDS011;1552;51.952;7.618;2023-03-21T07:27:24;31.83;;;14.67;;
3083;SDS011;1552;51.952;7.618;2023-03-21T07:29:50;31.40;;;14.57;;
3083;SDS011;1552;51.952;7.618;2023-03-21T07:32:17;27.77;;;13.63;;
3083;SDS011;1552;51.952;7.618;2023-03-21T07:34:43;27.90;;;13.77;;
3083;SDS011;1552;51.952;7.618;2023-03-21T07:37:09;28.90;;;13.30;;
3083;SDS011;1552;51.952;7.618;2023-03-21T07:39:36;26.53;;;13.00;;
3083;SDS011;1552;51.952;7.618;2023-03-21T07:42:03;27.67;;;13.73;;
3083;SDS011;1552;51.952;7.618;2023-03-21T07:44:30;28.63;;;13.53;;
3083;SDS011;1552;51.952;7.618;2023-03-21T07:46:57;29.23;;;12.93;;
3083;SDS011;1552;51.952;7.618;2023-03-21T07:49:23;28.23;;;14.07;;
3083;SDS011;1552;51.952;7.618;2023-03-21T07:51:50;32.13;;;14.07;;
3083;SDS011;1552;51.952;7.618;2023-03-21T07:54:17;25.67;;;13.47;;
3083;SDS011;1552;51.952;7.618;2023-03-21T07:56:46;27.73;;;12.57;;
3083;SDS011;1552;51.952;7.618;2023-03-21T07:59:13;27.87;;;13.27;;
3083;SDS011;1552;51.952;7.618;2023-03-21T08:01:40;31.23;;;14.73;;
3083;SDS011;1552;51.952;7.618;2023-03-21T08:04:06;26.77;;;13.40;;
3083;SDS011;1552;51.952;7.618;2023-03-21T08:06:32;27.97;;;14.07;;
3083;SDS011;1552;51.952;7.618;2023-03-21T08:08:58;29.97;;;13.53;;
3083;SDS011;1552;51.952;7.618;2023-03-21T08:11:25;24.77;;;13.77;;
3083;SDS011;1552;51.952;7.618;2023-03-21T08:13:55;32.03;;;13.07;;
3083;SDS011;1552;51.952;7.618;2023-03-21T08:16:22;34.17;;;14.07;;
3083;SDS011;1552;51.952;7.618;2023-03-21T08:18:49;26.83;;;14.10;;
3083;SDS011;1552;51.952;7.618;2023-03-21T08:21:15;31.07;;;14.43;;
3083;SDS011;1552;51.952;7.618;2023-03-21T08:23:42;24.57;;;12.53;;
3083;SDS011;1552;51.952;7.618;2023-03-21T08:26:08;30.20;;;14.03;;
3083;SDS011;1552;51.952;7.618;2023-03-21T08:28:35;26.40;;;12.53;;
3083;SDS011;1552;51.952;7.618;2023-03-21T08:31:05;29.87;;;14.70;;
3083;SDS011;1552;51.952;7.618;2023-03-21T08:33:33;28.23;;;13.23;;
3083;SDS011;1552;51.952;7.618;2023-03-21T08:35:59;26.40;;;13.17;;
3083;SDS011;1552;51.952;7.618;2023-03-21T08:38:26;26.07;;;12.67;;
3083;SDS011;1552;51.952;7.618;2023-03-21T08:40:53;28.33;;;12.57;;
3083;SDS011;1552;51.952;7.618;2023-03-21T08:43:20;23.87;;;12.37;;
3083;SDS011;1552;51.952;7.618;2023-03-21T08:45:46;27.03;;;13.07;;
3083;SDS011;1552;51.952;7.618;2023-03-21T08:48:13;31.57;;;12.77;;
3083;SDS011;1552;51.952;7.618;2023-03-21T08:50:41;23.43;;;12.90;;
3083;SDS011;1552;51.952;7.618;2023-03-21T08:53:07;25.67;;;11.40;;
3083;SDS011;1552;51.952;7.618;2023-03-21T08:55:33;24.00;;;12.53;;
3083;SDS011;1552;51.952;7.618;2023-03-21T08:58:00;23.07;;;11.50;;
3083;SDS011;1552;51.952;7.618;2023-03-21T09:00:26;26.93;;;11.40;;
3083;SDS011;1552;51.952;7.618;2023-03-21T09:02:53;25.77;;;12.83;;
3083;SDS011;1552;51.952;7.618;2023-03-21T09:05:20;23.83;;;11.37;;
3083;SDS011;1552;51.952;7.618;2023-03-21T09:07:48;20.03;;;11.30;;
3083;SDS011;1552;51.952;7.618;2023-03-21T09:10:15;27.20;;;12.63;;
3083;SDS011;1552;51.952;7.618;2023-03-21T09:12:42;22.87;;;11.37;;
3083;SDS011;1552;51.952;7.618;2023-03-21T09:15:09;25.37;;;11.07;;
3083;SDS011;1552;51.952;7.618;2023-03-21T09:17:36;24.07;;;11.70;;
3083;SDS011;1552;51.952;7.618;2023-03-21T09:20:06;23.23;;;11.90;;
3083;SDS011;1552;51.952;7.618;2023-03-21T09:22:35;26.13;;;11.30;;
3083;SDS011;1552;51.952;7.618;2023-03-21T09:25:03;21.20;;;10.50;;
3083;SDS011;1552;51.952;7.618;2023-03-21T09:27:35;25.13;;;10.83;;
3083;SDS011;1552;51.952;7.618;2023-03-21T09:30:02;23.43;;;12.20;;
3083;SDS011;1552;51.952;7.618;2023-03-21T09:32:31;25.37;;;11.87;;
3083;SDS011;1552;51.952;7.618;2023-03-21T09:34:58;20.57;;;11.30;;
3083;SDS011;1552;51.952;7.618;2023-03-21T09:37:24;23.73;;;11.60;;
3083;SDS011;1552;51.952;7.618;2023-03-21T09:39:51;20.20;;;9.77;;
3083;SDS011;1552;51.952;7.618;2023-03-21T09:42:25;21.33;;;11.10;;
3083;SDS011;1552;51.952;7.618;2023-03-21T09:44:58;20.23;;;11.13;;
3083;SDS011;1552;51.952;7.618;2023-03-21T09:47:27;21.07;;;10.03;;
3083;SDS011;1552;51.952;7.618;2023-03-21T09:49:57;20.20;;;11.07;;
3083;SDS011;1552;51.952;7.618;2023-03-21T09:52:25;20.07;;;11.00;;
3083;SDS011;1552;51.952;7.618;2023-03-21T09:54:53;19.83;;;10.47;;
3083;SDS011;1552;51.952;7.618;2023-03-21T09:57:21;23.53;;;10.90;;
3083;SDS011;1552;51.952;7.618;2023-03-21T09:59:52;24.87;;;11.10;;
3083;SDS011;1552;51.952;7.618;2023-03-21T10:02:23;22.93;;;10.57;;
3083;SDS011;1552;51.952;7.618;2023-03-21T10:04:56;21.60;;;9.97;;
3083;SDS011;1552;51.952;7.618;2023-03-21T10:07:22;19.90;;;9.90;;
3083;SDS011;1552;51.952;7.618;2023-03-21T10:09:49;25.93;;;11.27;;
3083;SDS011;1552;51.952;7.618;2023-03-21T10:12:18;24.77;;;11.30;;
3083;SDS011;1552;51.952;7.618;2023-03-21T10:14:46;19.13;;;9.50;;
3083;SDS011;1552;51.952;7.618;2023-03-21T10:17:17;17.97;;;9.60;;
3083;SDS011;1552;51.952;7.618;2023-03-21T10:19:47;21.63;;;9.87;;
3083;SDS011;1552;51.952;7.618;2023-03-21T10:22:14;17.50;;;9.20;;
3083;SDS011;1552;51.952;7.618;2023-03-21T10:24:41;17.33;;;8.37;;
3083;SDS011;1552;51.952;7.618;2023-03-21T10:27:08;19.67;;;9.20;;
3083;SDS011;1552;51.952;7.618;2023-03-21T10:29:39;19.60;;;9.50;;
3083;SDS011;1552;51.952;7.618;2023-03-21T10:32:07;20.03;;;9.57;;
3083;SDS011;1552;51.952;7.618;2023-03-21T10:34:36;19.93;;;9.07;;
3083;SDS011;1552;51.952;7.618;2023-03-21T10:37:04;19.37;;;10.17;;
3083;SDS011;1552;51.952;7.618;2023-03-21T10:39:32;19.80;;;10.20;;
3083;SDS011;1552;51.952;7.618;2023-03-21T10:41:59;23.53;;;9.10;;
3083;SDS011;1552;51.952;7.618;2023-03-21T10:44:28;21.33;;;9.17;;
3083;SDS011;1552;51.952;7.618;2023-03-21T10:46:55;17.00;;;8.97;;
3083;SDS011;1552;51.952;7.618;2023-03-21T10:49:22;18.70;;;8.53;;
3083;SDS011;1552;51.952;7.618;2023-03-21T10:51:52;17.40;;;9.23;;
3083;SDS011;1552;51.952;7.618;2023-03-21T10:54:20;18.30;;;9.10;;
3083;SDS011;1552;51.952;7.618;2023-03-21T10:56:54;19.07;;;9.47;;
3083;SDS011;1552;51.952;7.618;2023-03-21T10:59:21;23.27;;;9.00;;
3083;SDS011;1552;51.952;7.618;2023-03-21T11:01:48;18.00;;;8.93;;
3083;SDS011;1552;51.952;7.618;2023-03-21T11:04:16;16.37;;;9.20;;
3083;SDS011;1552;51.952;7.618;2023-03-21T11:06:43;15.83;;;8.63;;
3083;SDS011;1552;51.952;7.618;2023-03-21T11:09:14;20.87;;;9.17;;
3083;SDS011;1552;51.952;7.618;2023-03-21T11:11:47;19.30;;;9.73;;
3083;SDS011;1552;51.952;7.618;2023-03-21T11:14:23;19.17;;;9.80;;
3083;SDS011;1552;51.952;7.618;2023-03-21T11:16:50;19.07;;;9.27;;
3083;SDS011;1552;51.952;7.618;2023-03-21T11:19:17;19.07;;;10.17;;
3083;SDS011;1552;51.952;7.618;2023-03-21T11:21:44;21.47;;;9.57;;
3083;SDS011;1552;51.952;7.618;2023-03-21T11:24:11;19.63;;;9.27;;
3083;SDS011;1552;51.952;7.618;2023-03-21T11:26:40;21.63;;;10.10;;
3083;SDS011;1552;51.952;7.618;2023-03-21T11:29:11;20.03;;;9.53;;
3083;SDS011;1552;51.952;7.618;2023-03-21T11:31:41;19.50;;;10.30;;
3083;SDS011;1552;51.952;7.618;2023-03-21T11:34:08;19.20;;;9.83;;
3083;SDS011;1552;51.952;7.618;2023-03-21T11:36:47;17.07;;;9.37;;
3083;SDS011;1552;51.952;7.618;2023-03-21T11:39:23;23.10;;;10.13;;
3083;SDS011;1552;51.952;7.618;2023-03-21T11:41:54;19.70;;;10.53;;
3083;SDS011;1552;51.952;7.618;2023-03-21T11:44:25;16.63;;;9.33;;
3083;SDS011;1552;51.952;7.618;2023-03-21T11:46:51;18.03;;;10.47;;
3083;SDS011;1552;51.952;7.618;2023-03-21T11:49:17;19.07;;;9.80;;
3083;SDS011;1552;51.952;7.618;2023-03-21T11:51:45;15.90;;;9.70;;
3083;SDS011;1552;51.952;7.618;2023-03-21T11:54:14;17.80;;;10.30;;
3083;SDS011;1552;51.952;7.618;2023-03-21T11:56:44;23.03;;;11.03;;
3083;SDS011;1552;51.952;7.618;2023-03-21T11:59:22;18.27;;;9.97;;
3083;SDS011;1552;51.952;7.618;2023-03-21T12:02:10;18.73;;;9.83;;
3083;SDS011;1552;51.952;7.618;2023-03-21T12:04:40;21.23;;;9.70;;
3083;SDS011;1552;51.952;7.618;2023-03-21T12:07:17;15.93;;;10.00;;
3083;SDS011;1552;51.952;7.618;2023-03-21T12:09:49;23.90;;;11.33;;
3083;SDS011;1552;51.952;7.618;2023-03-21T12:12:22;18.43;;;9.83;;
3083;SDS011;1552;51.952;7.618;2023-03-21T12:14:56;17.63;;;9.97;;
3083;SDS011;1552;51.952;7.618;2023-03-21T12:17:29;16.47;;;9.87;;
3083;SDS011;1552;51.952;7.618;2023-03-21T12:20:02;18.50;;;10.20;;
3083;SDS011;1552;51.952;7.618;2023-03-21T12:22:35;17.90;;;10.47;;
3083;SDS011;1552;51.952;7.618;2023-03-21T12:25:08;18.17;;;10.67;;
3083;SDS011;1552;51.952;7.618;2023-03-21T12:27:38;19.37;;;10.00;;
3083;SDS011;1552;51.952;7.618;2023-03-21T12:30:12;16.43;;;9.70;;
3083;SDS011;1552;51.952;7.618;2023-03-21T12:32:46;14.43;;;9.37;;
3083;SDS011;1552;51.952;7.618;2023-03-21T12:35:23;16.53;;;9.07;;
3083;SDS011;1552;51.952;7.618;2023-03-21T12:37:55;14.50;;;9.33;;
3083;SDS011;1552;51.952;7.618;2023-03-21T12:40:25;13.67;;;8.57;;
3083;SDS011;1552;51.952;7.618;2023-03-21T12:43:19;16.40;;;8.57;;
3083;SDS011;1552;51.952;7.618;2023-03-21T12:45:49;13.73;;;7.67;;
3083;SDS011;1552;51.952;7.618;2023-03-21T12:48:18;17.97;;;7.47;;
3083;SDS011;1552;51.952;7.618;2023-03-21T12:50:46;15.43;;;7.17;;
3083;SDS011;1552;51.952;7.618;2023-03-21T12:53:21;15.27;;;6.97;;
3083;SDS011;1552;51.952;7.618;2023-03-21T12:55:51;14.37;;;6.53;;
3083;SDS011;1552;51.952;7.618;2023-03-21T12:58:19;9.83;;;6.23;;
3083;SDS011;1552;51.952;7.618;2023-03-21T13:00:47;12.43;;;5.90;;
3083;SDS011;1552;51.952;7.618;2023-03-21T13:03:17;14.83;;;5.97;;
3083;SDS011;1552;51.952;7.618;2023-03-21T13:05:47;12.20;;;5.43;;
3083;SDS011;1552;51.952;7.618;2023-03-21T13:08:15;9.73;;;5.53;;
3083;SDS011;1552;51.952;7.618;2023-03-21T13:10:42;14.43;;;6.17;;
3083;SDS011;1552;51.952;7.618;2023-03-21T13:13:11;9.70;;;5.37;;
3083;SDS011;1552;51.952;7.618;2023-03-21T13:15:44;11.97;;;6.63;;
3083;SDS011;1552;51.952;7.618;2023-03-21T13:18:17;12.73;;;6.27;;
3083;SDS011;1552;51.952;7.618;2023-03-21T13:20:46;11.43;;;6.40;;
3083;SDS011;1552;51.952;7.618;2023-03-21T13:23:14;12.97;;;6.10;;
3083;SDS011;1552;51.952;7.618;2023-03-21T13:25:43;12.60;;;6.43;;
3083;SDS011;1552;51.952;7.618;2023-03-21T13:28:15;11.47;;;6.13;;
3083;SDS011;1552;51.952;7.618;2023-03-21T13:30:42;9.90;;;5.90;;
3083;SDS011;1552;51.952;7.618;2023-03-21T13:33:10;8.23;;;5.47;;
3083;SDS011;1552;51.952;7.618;2023-03-21T13:35:39;13.13;;;5.90;;
3083;SDS011;1552;51.952;7.618;2023-03-21T13:38:09;18.33;;;7.33;;
3083;SDS011;1552;51.952;7.618;2023-03-21T13:40:37;20.63;;;11.47;;
3083;SDS011;1552;51.952;7.618;2023-03-21T13:43:21;9.17;;;5.50;;
3083;SDS011;1552;51.952;7.618;2023-03-21T13:45:51;21.57;;;8.13;;
3083;SDS011;1552;51.952;7.618;2023-03-21T13:48:25;11.83;;;5.30;;
3083;SDS011;1552;51.952;7.618;2023-03-21T13:50:58;12.27;;;5.57;;
3083;SDS011;1552;51.952;7.618;2023-03-21T13:53:31;10.93;;;4.87;;
3083;SDS011;1552;51.952;7.618;2023-03-21T13:56:08;8.97;;;5.37;;
3083;SDS011;1552;51.952;7.618;2023-03-21T13:58:36;10.07;;;5.57;;
3083;SDS011;1552;51.952;7.618;2023-03-21T14:01:11;11.50;;;5.13;;
3083;SDS011;1552;51.952;7.618;2023-03-21T14:03:40;7.87;;;4.53;;
3083;SDS011;1552;51.952;7.618;2023-03-21T14:06:08;11.07;;;4.57;;
3083;SDS011;1552;51.952;7.618;2023-03-21T14:08:35;10.90;;;5.07;;
3083;SDS011;1552;51.952;7.618;2023-03-21T14:11:02;8.47;;;4.60;;
3083;SDS011;1552;51.952;7.618;2023-03-21T14:13:30;11.23;;;4.67;;
3083;SDS011;1552;51.952;7.618;2023-03-21T14:15:58;10.80;;;4.50;;
3083;SDS011;1552;51.952;7.618;2023-03-21T14:18:26;7.93;;;4.30;;
3083;SDS011;1552;51.952;7.618;2023-03-21T14:20:54;10.20;;;3.67;;
3083;SDS011;1552;51.952;7.618;2023-03-21T14:23:22;7.73;;;4.07;;
3083;SDS011;1552;51.952;7.618;2023-03-21T14:25:49;5.73;;;3.70;;
3083;SDS011;1552;51.952;7.618;2023-03-21T14:28:16;7.07;;;3.83;;
3083;SDS011;1552;51.952;7.618;2023-03-21T14:30:43;4.70;;;3.27;;
3083;SDS011;1552;51.952;7.618;2023-03-21T14:33:12;9.70;;;3.53;;
3083;SDS011;1552;51.952;7.618;2023-03-21T14:35:40;7.80;;;3.90;;
3083;SDS011;1552;51.952;7.618;2023-03-21T14:38:07;6.70;;;3.47;;
3083;SDS011;1552;51.952;7.618;2023-03-21T14:40:35;8.53;;;4.20;;
3083;SDS011;1552;51.952;7.618;2023-03-21T14:43:02;6.93;;;3.50;;
3083;SDS011;1552;51.952;7.618;2023-03-21T14:45:29;9.20;;;3.47;;
3083;SDS011;1552;51.952;7.618;2023-03-21T14:47:56;8.07;;;3.53;;
3083;SDS011;1552;51.952;7.618;2023-03-21T14:50:23;9.73;;;3.70;;
3083;SDS011;1552;51.952;7.618;2023-03-21T14:52:51;7.83;;;3.83;;
3083;SDS011;1552;51.952;7.618;2023-03-21T14:55:18;7.43;;;3.90;;
3083;SDS011;1552;51.952;7.618;2023-03-21T14:57:46;5.83;;;3.37;;
3083;SDS011;1552;51.952;7.618;2023-03-21T15:00:15;6.40;;;3.07;;